RYR7W LEBL-LBSF
Flight info
| Callsign | RYR7W |
|---|---|
| Flight time | N/A |
| Altitude | 34000 |
| Route | DIPES N725 OSPOK/N0455F350 DCT ORKUM/N0453F360 DCT ALG DCT VAPUP/N0452F370 DCT RAMAP DCT NISVA |
| Aircraft | B738/M-SDE2E3FGHIRWXY/LB1 |
Departure
| Time | 2026-05-05 14:50 |
|---|---|
| Airport | Josep Tarradellas Barcelona-El Prat Airport (LEBL) |
Arrival
| Time | N/A |
|---|---|
| Airport | Sofia Airport (LBSF) |
| Time | Latitude | Longitude | Altitude | Speed | Heading |
|---|---|---|---|---|---|
| 2026-05-05 14:14 | 41.30240 | 2.08036 | 20 ft | 0 kts | 5° |
| 2026-05-05 14:41 | 41.30227 | 2.08035 | 19 ft | 4 kts | 5° |
| 2026-05-05 14:41 | 41.30200 | 2.08031 | 18 ft | 4 kts | 5° |
| 2026-05-05 14:42 | 41.30181 | 2.08029 | 18 ft | 0 kts | 5° |
| 2026-05-05 14:45 | 41.30183 | 2.08039 | 21 ft | 4 kts | 78° |
| 2026-05-05 14:45 | 41.30196 | 2.08146 | 18 ft | 18 kts | 66° |
| 2026-05-05 14:45 | 41.30254 | 2.08314 | 18 ft | 21 kts | 66° |
| 2026-05-05 14:46 | 41.30263 | 2.08453 | 18 ft | 15 kts | 120° |
| 2026-05-05 14:46 | 41.30283 | 2.08591 | 16 ft | 17 kts | 65° |
| 2026-05-05 14:46 | 41.30343 | 2.08767 | 16 ft | 22 kts | 65° |
| 2026-05-05 14:46 | 41.30390 | 2.08906 | 19 ft | 15 kts | 66° |
| 2026-05-05 14:47 | 41.30468 | 2.08992 | 18 ft | 18 kts | 18° |
| 2026-05-05 14:47 | 41.30525 | 2.09016 | 17 ft | 18 kts | 18° |
| 2026-05-05 14:47 | 41.30535 | 2.09021 | 17 ft | 18 kts | 19° |
| 2026-05-05 14:47 | 41.30642 | 2.09070 | 18 ft | 15 kts | 19° |
| 2026-05-05 14:48 | 41.30739 | 2.09115 | 18 ft | 14 kts | 19° |
| 2026-05-05 14:48 | 41.30831 | 2.09160 | 19 ft | 14 kts | 32° |
| 2026-05-05 14:48 | 41.30886 | 2.09262 | 19 ft | 14 kts | 64° |
| 2026-05-05 14:48 | 41.30919 | 2.09360 | 19 ft | 11 kts | 67° |
| 2026-05-05 14:49 | 41.30895 | 2.09438 | 21 ft | 10 kts | 165° |
| 2026-05-05 14:49 | 41.30828 | 2.09419 | 21 ft | 7 kts | 199° |
| 2026-05-05 14:49 | 41.30779 | 2.09397 | 21 ft | 7 kts | 199° |
| 2026-05-05 14:49 | 41.30649 | 2.09338 | 22 ft | 49 kts | 199° |
| 2026-05-05 14:50 | 41.30072 | 2.09074 | 17 ft | 123 kts | 198° |
| 2026-05-05 14:50 | 41.29065 | 2.08618 | 104 ft | 175 kts | 197° |
| 2026-05-05 14:50 | 41.27941 | 2.08069 | 979 ft | 173 kts | 199° |
| 2026-05-05 14:50 | 41.26829 | 2.07500 | 2041 ft | 165 kts | 202° |
| 2026-05-05 14:51 | 41.25762 | 2.06924 | 2757 ft | 170 kts | 206° |
| 2026-05-05 14:51 | 41.24660 | 2.06299 | 3413 ft | 181 kts | 202° |
| 2026-05-05 14:51 | 41.23374 | 2.05747 | 3746 ft | 203 kts | 198° |
| 2026-05-05 14:51 | 41.22003 | 2.05196 | 4304 ft | 208 kts | 199° |
| 2026-05-05 14:52 | 41.20609 | 2.04605 | 4914 ft | 214 kts | 199° |
| 2026-05-05 14:52 | 41.19158 | 2.03967 | 5514 ft | 223 kts | 200° |
| 2026-05-05 14:52 | 41.17749 | 2.03058 | 6164 ft | 230 kts | 225° |
| 2026-05-05 14:52 | 41.16984 | 2.01218 | 6906 ft | 233 kts | 258° |
| 2026-05-05 14:53 | 41.17082 | 1.99069 | 7705 ft | 239 kts | 286° |
| 2026-05-05 14:53 | 41.17932 | 1.97136 | 8461 ft | 249 kts | 306° |
| 2026-05-05 14:53 | 41.19114 | 1.95423 | 9211 ft | 254 kts | 308° |
| 2026-05-05 14:53 | 41.20330 | 1.93703 | 9933 ft | 257 kts | 307° |
| 2026-05-05 14:54 | 41.21553 | 1.91951 | 10619 ft | 260 kts | 307° |
| 2026-05-05 14:54 | 41.22808 | 1.90204 | 11316 ft | 265 kts | 314° |
| 2026-05-05 14:54 | 41.24391 | 1.88769 | 11650 ft | 288 kts | 325° |
| 2026-05-05 14:54 | 41.26164 | 1.87378 | 11845 ft | 312 kts | 326° |
| 2026-05-05 14:55 | 41.28296 | 1.86379 | 11999 ft | 344 kts | 351° |
| 2026-05-05 14:55 | 41.30750 | 1.86760 | 12175 ft | 372 kts | 19° |
| 2026-05-05 14:55 | 41.32971 | 1.88658 | 12486 ft | 390 kts | 46° |
| 2026-05-05 14:55 | 41.34400 | 1.91718 | 13124 ft | 393 kts | 73° |
| 2026-05-05 14:56 | 41.34776 | 1.95286 | 13747 ft | 392 kts | 96° |
| 2026-05-05 14:56 | 41.34614 | 1.98915 | 14330 ft | 397 kts | 94° |
| 2026-05-05 14:56 | 41.34654 | 2.02615 | 14874 ft | 402 kts | 94° |
| 2026-05-05 14:56 | 41.34233 | 2.06277 | 15404 ft | 399 kts | 114° |
| 2026-05-05 14:57 | 41.33071 | 2.09609 | 15995 ft | 397 kts | 122° |
| 2026-05-05 14:57 | 41.31763 | 2.12871 | 16506 ft | 403 kts | 123° |
| 2026-05-05 14:57 | 41.30420 | 2.16183 | 17013 ft | 409 kts | 124° |
| 2026-05-05 14:57 | 41.29069 | 2.19532 | 17595 ft | 413 kts | 124° |
| 2026-05-05 14:58 | 41.27717 | 2.22916 | 18163 ft | 417 kts | 123° |
| 2026-05-05 14:58 | 41.26357 | 2.26342 | 18650 ft | 421 kts | 123° |
| 2026-05-05 14:58 | 41.25834 | 2.27665 | 18833 ft | 422 kts | 124° |
| 2026-05-05 14:58 | 41.25079 | 2.29576 | 19099 ft | 424 kts | 124° |
| 2026-05-05 14:59 | 41.23701 | 2.33069 | 19552 ft | 429 kts | 124° |
| 2026-05-05 14:59 | 41.22311 | 2.36586 | 20010 ft | 432 kts | 124° |
| 2026-05-05 14:59 | 41.20909 | 2.40136 | 20497 ft | 435 kts | 124° |
| 2026-05-05 14:59 | 41.19496 | 2.43707 | 20971 ft | 438 kts | 124° |
| 2026-05-05 15:00 | 41.18153 | 2.47098 | 21405 ft | 442 kts | 125° |
| 2026-05-05 15:00 | 41.17203 | 2.49493 | 21714 ft | 444 kts | 125° |
| 2026-05-05 15:00 | 41.15274 | 2.54374 | 22296 ft | 450 kts | 123° |
| 2026-05-05 15:00 | 41.14283 | 2.58381 | 22663 ft | 470 kts | 104° |
| 2026-05-05 15:01 | 41.13966 | 2.62733 | 23147 ft | 475 kts | 100° |
| 2026-05-05 15:01 | 41.13705 | 2.67117 | 23533 ft | 479 kts | 100° |
| 2026-05-05 15:01 | 41.13393 | 2.71533 | 23795 ft | 483 kts | 101° |
| 2026-05-05 15:01 | 41.13035 | 2.75977 | 24127 ft | 485 kts | 102° |
| 2026-05-05 15:02 | 41.12657 | 2.80430 | 24486 ft | 487 kts | 102° |
| 2026-05-05 15:02 | 41.12277 | 2.84904 | 24825 ft | 490 kts | 102° |
| 2026-05-05 15:02 | 41.11895 | 2.89412 | 25140 ft | 493 kts | 102° |
| 2026-05-05 15:02 | 41.11675 | 2.92003 | 25317 ft | 495 kts | 102° |
| 2026-05-05 15:03 | 41.11588 | 2.93032 | 25388 ft | 495 kts | 102° |
| 2026-05-05 15:03 | 41.11204 | 2.97580 | 25703 ft | 498 kts | 102° |
| 2026-05-05 15:04 | 41.10811 | 3.02215 | 26017 ft | 500 kts | 103° |
| 2026-05-05 15:04 | 41.10424 | 3.06752 | 26303 ft | 503 kts | 103° |
| 2026-05-05 15:04 | 41.10267 | 3.08598 | 26431 ft | 504 kts | 103° |
| 2026-05-05 15:05 | 41.09940 | 3.12422 | 26690 ft | 505 kts | 103° |
| 2026-05-05 15:05 | 41.09806 | 3.13976 | 26798 ft | 506 kts | 103° |
| 2026-05-05 15:06 | 41.09548 | 3.16969 | 26986 ft | 508 kts | 103° |
| 2026-05-05 15:06 | 41.09401 | 3.18676 | 27087 ft | 509 kts | 103° |
| 2026-05-05 15:07 | 41.09304 | 3.19800 | 27153 ft | 509 kts | 103° |
| 2026-05-05 15:07 | 41.08898 | 3.24473 | 27425 ft | 512 kts | 103° |
| 2026-05-05 15:07 | 41.08488 | 3.29173 | 27683 ft | 514 kts | 103° |
| 2026-05-05 15:07 | 41.08075 | 3.33890 | 27964 ft | 516 kts | 103° |
| 2026-05-05 15:08 | 41.07660 | 3.38616 | 28258 ft | 517 kts | 103° |
| 2026-05-05 15:08 | 41.07246 | 3.43303 | 28509 ft | 520 kts | 103° |
| 2026-05-05 15:08 | 41.06824 | 3.48063 | 28756 ft | 522 kts | 103° |
| 2026-05-05 15:08 | 41.06398 | 3.52846 | 29107 ft | 522 kts | 103° |
| 2026-05-05 15:09 | 41.05862 | 3.57577 | 29505 ft | 516 kts | 108° |
| 2026-05-05 15:09 | 41.05104 | 3.62202 | 29919 ft | 511 kts | 111° |
| 2026-05-05 15:09 | 41.04240 | 3.66756 | 30245 ft | 510 kts | 112° |
| 2026-05-05 15:09 | 41.03345 | 3.71293 | 30549 ft | 509 kts | 112° |
| 2026-05-05 15:10 | 41.02459 | 3.75826 | 30897 ft | 508 kts | 112° |
| 2026-05-05 15:10 | 41.01598 | 3.80357 | 31242 ft | 507 kts | 112° |
| 2026-05-05 15:10 | 41.00761 | 3.84880 | 31565 ft | 505 kts | 111° |
| 2026-05-05 15:10 | 40.99942 | 3.89385 | 31949 ft | 503 kts | 111° |
| 2026-05-05 15:11 | 40.99678 | 3.90843 | 32058 ft | 502 kts | 111° |
| 2026-05-05 15:11 | 40.98728 | 3.96112 | 32410 ft | 501 kts | 111° |
| 2026-05-05 15:11 | 40.97916 | 4.00599 | 32683 ft | 501 kts | 111° |
| 2026-05-05 15:12 | 40.97102 | 4.05083 | 32978 ft | 500 kts | 111° |
| 2026-05-05 15:12 | 40.96290 | 4.09545 | 33286 ft | 499 kts | 112° |
| 2026-05-05 15:12 | 40.95475 | 4.14006 | 33584 ft | 498 kts | 112° |
| 2026-05-05 15:12 | 40.94659 | 4.18453 | 33863 ft | 497 kts | 112° |
| 2026-05-05 15:13 | 40.93839 | 4.22909 | 33885 ft | 500 kts | 112° |
| 2026-05-05 15:13 | 40.92190 | 4.31841 | 33901 ft | 498 kts | 112° |
| 2026-05-05 15:14 | 40.90790 | 4.39411 | 33902 ft | 495 kts | 112° |